createdAt,value
2019-05-09T00:00:23.569Z,11.40
2019-05-09T00:02:54.033Z,11.40
2019-05-09T00:05:25.267Z,11.30
2019-05-09T00:07:53.184Z,11.40
2019-05-09T00:10:38.069Z,11.40
2019-05-09T00:12:54.058Z,11.40
2019-05-09T00:15:24.203Z,11.40
2019-05-09T00:17:53.354Z,11.40
2019-05-09T00:20:33.178Z,11.40
2019-05-09T00:23:03.261Z,11.40
2019-05-09T00:25:33.898Z,11.30
2019-05-09T00:28:04.112Z,11.30
2019-05-09T00:30:50.446Z,11.30
2019-05-09T00:33:20.619Z,11.30
2019-05-09T00:35:49.106Z,11.20
2019-05-09T00:38:19.222Z,11.20
2019-05-09T00:40:57.832Z,11.30
2019-05-09T00:43:18.945Z,11.10
2019-05-09T00:46:03.845Z,11.10
2019-05-09T00:48:33.671Z,11.10
2019-05-09T00:51:03.456Z,11.10
2019-05-09T00:53:33.887Z,11.10
2019-05-09T00:56:04.112Z,11.20
2019-05-09T00:58:33.437Z,10.90
2019-05-09T01:01:04.309Z,10.90
2019-05-09T01:03:33.917Z,10.90
2019-05-09T01:06:04.123Z,10.90
2019-05-09T01:08:33.590Z,11.00
2019-05-09T01:11:11.752Z,10.80
2019-05-09T01:13:34.071Z,10.90
2019-05-09T01:16:04.593Z,10.80
2019-05-09T01:18:34.092Z,10.80
2019-05-09T01:21:03.965Z,10.70
2019-05-09T01:23:34.419Z,10.70
2019-05-09T01:26:03.882Z,10.70
2019-05-09T01:28:33.957Z,10.70
2019-05-09T01:31:04.106Z,10.70
2019-05-09T01:33:37.073Z,10.70
2019-05-09T01:36:05.836Z,10.80
2019-05-09T01:38:34.354Z,10.70
2019-05-09T01:41:04.067Z,10.70
2019-05-09T01:43:33.809Z,10.80
2019-05-09T01:46:03.687Z,10.70
2019-05-09T01:48:34.090Z,10.60
2019-05-09T01:51:03.354Z,10.60
2019-05-09T01:53:35.218Z,10.50
2019-05-09T01:56:04.164Z,10.60
2019-05-09T01:58:34.371Z,10.70
2019-05-09T02:01:05.126Z,10.70
2019-05-09T02:03:33.895Z,10.50
2019-05-09T02:06:03.508Z,10.50
2019-05-09T02:08:34.170Z,10.50
2019-05-09T02:11:03.773Z,10.40
2019-05-09T02:13:33.886Z,10.40
2019-05-09T02:16:06.759Z,10.40
2019-05-09T02:18:54.636Z,10.40
2019-05-09T02:21:23.989Z,10.30
2019-05-09T02:23:53.690Z,10.40
2019-05-09T02:26:24.084Z,10.30
2019-05-09T02:28:53.810Z,10.30
2019-05-09T02:31:24.560Z,10.30
2019-05-09T02:33:54.187Z,10.20
2019-05-09T02:36:22.886Z,10.20
2019-05-09T02:38:51.423Z,10.30
2019-05-09T02:41:20.181Z,10.20
2019-05-09T02:43:49.868Z,10.20
2019-05-09T02:46:20.191Z,10.10
2019-05-09T02:48:49.632Z,10.20
2019-05-09T02:51:18.763Z,10.20
2019-05-09T02:53:48.526Z,10.00
2019-05-09T02:56:18.922Z,10.00
2019-05-09T02:59:05.516Z,10.00
2019-05-09T03:01:38.922Z,10.00
2019-05-09T03:04:08.409Z,10.00
2019-05-09T03:06:38.889Z,10.00
2019-05-09T03:09:08.890Z,9.90
2019-05-09T03:11:38.833Z,9.80
2019-05-09T03:14:09.161Z,10.00
2019-05-09T03:16:39.781Z,10.00
2019-05-09T03:19:09.164Z,10.00
2019-05-09T03:21:39.566Z,9.90
2019-05-09T03:24:09.849Z,9.80
2019-05-09T03:26:40.040Z,9.80
2019-05-09T03:29:22.122Z,9.80
2019-05-09T03:31:51.224Z,9.80
2019-05-09T03:34:19.983Z,9.70
2019-05-09T03:36:48.537Z,9.70
2019-05-09T03:39:18.545Z,9.70
2019-05-09T03:41:48.683Z,9.70
2019-05-09T03:44:20.176Z,9.80
2019-05-09T03:47:01.931Z,9.80
2019-05-09T03:49:33.322Z,9.70
2019-05-09T03:52:01.866Z,9.70
2019-05-09T03:54:30.397Z,9.70
2019-05-09T03:57:00.870Z,9.80
2019-05-09T03:59:29.333Z,9.70
2019-05-09T04:01:59.048Z,9.80
2019-05-09T04:04:28.216Z,9.60
2019-05-09T04:06:58.042Z,9.70
2019-05-09T04:09:27.462Z,9.70
2019-05-09T04:11:58.373Z,9.60
2019-05-09T04:14:30.518Z,9.60
2019-05-09T04:16:58.995Z,9.60
2019-05-09T04:19:27.732Z,9.60
2019-05-09T04:21:57.565Z,9.50
2019-05-09T04:24:28.045Z,9.50
2019-05-09T04:26:58.515Z,9.50
2019-05-09T04:29:28.595Z,9.60
2019-05-09T04:31:57.560Z,9.50
2019-05-09T04:34:27.528Z,9.60
2019-05-09T04:36:57.652Z,9.60
2019-05-09T04:39:28.321Z,9.60
2019-05-09T04:42:03.664Z,9.50
2019-05-09T04:44:31.645Z,9.60
2019-05-09T04:47:03.568Z,9.60
2019-05-09T04:49:39.620Z,9.50
2019-05-09T04:52:00.542Z,9.70
2019-05-09T04:54:29.142Z,9.70
2019-05-09T04:56:57.666Z,9.60
2019-05-09T04:59:28.139Z,9.70
2019-05-09T05:01:58.264Z,9.70
2019-05-09T05:04:28.255Z,9.70
2019-05-09T05:06:58.529Z,9.70
2019-05-09T05:09:27.807Z,9.70
2019-05-09T05:11:57.921Z,9.60
2019-05-09T05:14:28.408Z,9.50
2019-05-09T05:17:06.622Z,9.60
2019-05-09T05:19:28.478Z,9.80
2019-05-09T05:21:59.225Z,10.00
2019-05-09T05:24:32.742Z,10.00
2019-05-09T05:27:01.220Z,10.00
2019-05-09T05:29:29.787Z,10.00
2019-05-09T05:32:00.055Z,10.10
2019-05-09T05:34:32.894Z,10.10
2019-05-09T05:37:01.435Z,10.10
2019-05-09T05:39:30.124Z,10.00
2019-05-09T05:41:59.033Z,10.10
2019-05-09T05:44:28.336Z,10.30
2019-05-09T05:47:18.051Z,10.50
2019-05-09T05:49:48.775Z,10.40
2019-05-09T05:52:18.507Z,10.70
2019-05-09T05:54:47.759Z,10.60
2019-05-09T05:57:17.726Z,10.80
2019-05-09T05:59:48.233Z,11.00
2019-05-09T06:02:17.781Z,11.00
2019-05-09T06:04:48.659Z,11.20
2019-05-09T06:07:18.453Z,11.20
2019-05-09T06:09:48.208Z,11.10
2019-05-09T06:12:18.543Z,11.30
2019-05-09T06:14:48.108Z,11.50
2019-05-09T06:17:18.090Z,11.60
2019-05-09T06:19:48.230Z,12.00
2019-05-09T06:22:18.320Z,12.00
2019-05-09T06:24:47.857Z,12.10
2019-05-09T06:27:18.227Z,12.20
2019-05-09T06:29:47.712Z,12.40
2019-05-09T06:32:18.791Z,12.70
2019-05-09T06:34:47.708Z,12.50
2019-05-09T06:37:18.369Z,12.80
2019-05-09T06:39:48.625Z,13.10
2019-05-09T06:42:18.093Z,13.40
2019-05-09T06:45:03.539Z,13.40
2019-05-09T06:47:38.114Z,13.40
2019-05-09T06:50:08.659Z,13.30
2019-05-09T06:52:37.617Z,13.20
2019-05-09T06:55:08.675Z,13.60
2019-05-09T06:57:42.560Z,13.80
2019-05-09T07:00:09.252Z,14.40
2019-05-09T07:02:39.427Z,14.80
2019-05-09T07:05:09.660Z,15.00
2019-05-09T07:07:42.337Z,15.80
2019-05-09T07:10:11.598Z,15.90
2019-05-09T07:12:40.351Z,15.80
2019-05-09T07:15:09.451Z,16.70
2019-05-09T07:17:38.699Z,17.70
2019-05-09T07:20:08.498Z,17.60
2019-05-09T07:22:39.446Z,18.00
2019-05-09T07:25:12.379Z,18.70
2019-05-09T07:27:42.473Z,19.20
2019-05-09T07:30:18.010Z,19.50
2019-05-09T07:32:48.629Z,20.10
2019-05-09T07:35:18.597Z,21.60
2019-05-09T07:37:48.786Z,21.10
2019-05-09T07:40:18.224Z,22.90
2019-05-09T07:42:47.917Z,24.20
2019-05-09T07:45:17.802Z,23.90
2019-05-09T07:47:47.849Z,22.20
2019-05-09T07:50:18.993Z,24.00
2019-05-09T07:52:47.974Z,23.50
2019-05-09T07:55:18.056Z,23.90
2019-05-09T07:57:54.645Z,23.60
2019-05-09T08:00:20.092Z,23.40
2019-05-09T08:02:48.579Z,23.70
2019-05-09T08:05:28.232Z,22.60
2019-05-09T08:07:58.588Z,20.50
2019-05-09T08:10:30.563Z,19.60
2019-05-09T08:12:58.529Z,18.50
2019-05-09T08:15:27.973Z,17.90
2019-05-09T08:17:58.983Z,18.90
2019-05-09T08:20:27.735Z,21.50
2019-05-09T08:22:58.704Z,23.10
2019-05-09T08:25:27.749Z,24.10
2019-05-09T08:27:58.561Z,24.10
2019-05-09T08:30:32.990Z,22.40
2019-05-09T08:32:59.622Z,23.80
2019-05-09T08:35:28.009Z,26.10
2019-05-09T08:37:58.395Z,27.30
2019-05-09T08:40:28.316Z,26.30
2019-05-09T08:42:59.016Z,23.40
2019-05-09T08:45:30.997Z,20.50
2019-05-09T08:47:58.020Z,20.00
2019-05-09T08:50:39.042Z,21.40
2019-05-09T08:53:08.253Z,23.40
2019-05-09T08:55:38.315Z,23.70
2019-05-09T08:58:08.063Z,22.40
2019-05-09T09:00:39.000Z,19.90
2019-05-09T09:03:07.983Z,19.80
2019-05-09T09:05:38.206Z,20.50
2019-05-09T09:08:08.335Z,21.20
2019-05-09T09:10:38.477Z,22.50
2019-05-09T09:13:08.817Z,23.60
2019-05-09T09:16:02.403Z,24.90
2019-05-09T09:18:08.545Z,26.10
2019-05-09T09:20:38.137Z,26.30
2019-05-09T09:23:08.871Z,28.70
2019-05-09T09:25:38.929Z,29.50
2019-05-09T09:28:08.789Z,29.80
2019-05-09T09:30:38.627Z,30.60
2019-05-09T09:33:11.357Z,32.40
2019-05-09T09:35:38.412Z,30.60
2019-05-09T09:38:09.075Z,29.90
2019-05-09T09:40:38.581Z,29.00
2019-05-09T09:43:09.275Z,31.60
2019-05-09T09:45:38.410Z,31.20
2019-05-09T09:48:08.995Z,31.40
2019-05-09T09:50:38.372Z,31.70
2019-05-09T09:53:08.678Z,29.80
2019-05-09T09:55:38.398Z,28.90
2019-05-09T09:58:08.282Z,26.70
2019-05-09T10:00:48.124Z,24.00
2019-05-09T10:03:18.538Z,23.40
2019-05-09T10:05:48.566Z,22.50
2019-05-09T10:08:18.212Z,21.20
2019-05-09T10:10:48.394Z,20.10
2019-05-09T10:13:18.483Z,19.90
2019-05-09T10:15:48.758Z,20.40
2019-05-09T10:18:21.538Z,20.70
2019-05-09T10:20:51.682Z,20.20
2019-05-09T10:23:21.571Z,19.80
2019-05-09T10:25:50.733Z,19.60
2019-05-09T10:28:21.419Z,18.80
2019-05-09T10:30:49.317Z,18.30
2019-05-09T10:33:17.896Z,18.00
2019-05-09T10:35:47.928Z,18.60
2019-05-09T10:38:18.367Z,20.40
2019-05-09T10:40:48.573Z,21.90
2019-05-09T10:43:33.929Z,23.00
2019-05-09T10:46:08.166Z,23.30
2019-05-09T10:48:35.710Z,22.60
2019-05-09T10:51:06.064Z,21.10
2019-05-09T10:53:34.332Z,20.20
2019-05-09T10:56:02.764Z,19.60
2019-05-09T10:58:31.235Z,19.30
2019-05-09T11:00:59.764Z,18.90
2019-05-09T11:03:28.177Z,18.90
2019-05-09T11:05:57.975Z,18.20
2019-05-09T11:08:28.653Z,17.90
2019-05-09T11:10:58.009Z,17.80
2019-05-09T11:13:28.712Z,18.30
2019-05-09T11:15:58.279Z,18.70
2019-05-09T11:18:28.644Z,18.80
2019-05-09T11:20:58.119Z,18.70
2019-05-09T11:23:29.119Z,18.30
2019-05-09T11:25:58.102Z,18.40
2019-05-09T11:28:28.547Z,17.80
2019-05-09T11:30:58.363Z,17.70
2019-05-09T11:33:27.803Z,17.40
2019-05-09T11:35:58.083Z,17.40
2019-05-09T11:38:32.227Z,17.80
2019-05-09T11:40:57.914Z,18.50
2019-05-09T11:43:26.621Z,19.40
2019-05-09T11:45:55.142Z,20.80
2019-05-09T11:48:23.566Z,21.30
2019-05-09T11:50:52.312Z,21.10
2019-05-09T11:53:20.814Z,20.50
2019-05-09T11:55:49.275Z,20.00
2019-05-09T11:58:18.214Z,18.80
2019-05-09T12:00:48.264Z,17.80
2019-05-09T12:03:18.950Z,17.50
2019-05-09T12:05:47.634Z,16.20
2019-05-09T12:08:17.733Z,14.80
2019-05-09T12:10:46.305Z,13.80
2019-05-09T12:13:14.725Z,13.40
2019-05-09T12:15:43.269Z,13.10
2019-05-09T12:18:11.889Z,12.90
2019-05-09T12:20:40.370Z,12.70
2019-05-09T12:23:08.944Z,12.50
2019-05-09T12:25:38.679Z,12.80
2019-05-09T12:28:07.930Z,13.00
2019-05-09T12:30:37.946Z,13.00
2019-05-09T12:33:08.633Z,12.80
2019-05-09T12:35:38.560Z,12.70
2019-05-09T12:38:08.341Z,12.40
2019-05-09T12:40:38.844Z,12.50
2019-05-09T12:43:09.132Z,12.90
2019-05-09T12:45:38.820Z,14.40
2019-05-09T12:48:14.625Z,16.00
2019-05-09T12:50:38.726Z,16.90
2019-05-09T12:53:07.310Z,18.10
2019-05-09T12:55:38.293Z,18.90
2019-05-09T12:58:09.792Z,18.80
2019-05-09T13:00:38.415Z,19.10
2019-05-09T13:03:08.457Z,18.70
2019-05-09T13:05:38.889Z,17.50
2019-05-09T13:08:10.474Z,17.60
2019-05-09T13:10:37.955Z,17.10
2019-05-09T13:13:08.594Z,16.90
2019-05-09T13:15:40.902Z,17.10
2019-05-09T13:18:21.294Z,17.50
2019-05-09T13:20:39.554Z,17.80
2019-05-09T13:23:08.896Z,17.70
2019-05-09T13:25:38.094Z,17.60
2019-05-09T13:28:08.247Z,17.00
2019-05-09T13:30:37.988Z,16.70
2019-05-09T13:33:10.132Z,16.90
2019-05-09T13:35:39.269Z,17.40
2019-05-09T13:38:08.703Z,17.40
2019-05-09T13:40:37.020Z,17.30
2019-05-09T13:43:05.564Z,17.00
2019-05-09T13:45:34.214Z,17.00
2019-05-09T13:48:02.724Z,16.50
2019-05-09T13:50:31.206Z,16.50
2019-05-09T13:52:59.703Z,16.50
2019-05-09T13:55:28.126Z,16.60
2019-05-09T13:57:59.241Z,16.80
2019-05-09T14:00:28.554Z,17.00
2019-05-09T14:02:57.252Z,16.80
2019-05-09T14:05:25.739Z,17.00
2019-05-09T14:07:55.818Z,17.20
2019-05-09T14:10:24.605Z,17.10
2019-05-09T14:13:05.332Z,16.90
2019-05-09T14:15:23.274Z,16.70
2019-05-09T14:17:53.929Z,16.50
2019-05-09T14:20:21.823Z,16.50
2019-05-09T14:22:50.481Z,16.40
2019-05-09T14:25:19.769Z,16.40
2019-05-09T14:27:49.697Z,16.60
2019-05-09T14:30:19.726Z,16.40
2019-05-09T14:32:49.751Z,16.30
2019-05-09T14:35:18.533Z,16.50
2019-05-09T14:37:48.782Z,16.70
2019-05-09T14:40:17.666Z,16.50
2019-05-09T14:42:46.351Z,16.70
2019-05-09T14:45:15.072Z,16.90
2019-05-09T14:47:43.513Z,17.10
2019-05-09T14:50:12.091Z,16.80
2019-05-09T14:52:40.561Z,17.00
2019-05-09T14:55:09.221Z,16.80
2019-05-09T14:57:38.490Z,16.80
2019-05-09T15:00:08.616Z,16.70
2019-05-09T15:02:38.919Z,17.00
2019-05-09T15:05:09.532Z,16.80
2019-05-09T15:07:39.091Z,16.90
2019-05-09T15:10:08.659Z,17.00
2019-05-09T15:12:39.099Z,17.00
2019-05-09T15:15:08.917Z,17.20
2019-05-09T15:17:37.812Z,17.10
2019-05-09T15:20:08.732Z,17.20
2019-05-09T15:22:38.631Z,16.90
2019-05-09T15:25:08.831Z,17.00
2019-05-09T15:27:38.493Z,16.80
2019-05-09T15:30:10.103Z,16.80
2019-05-09T15:32:38.521Z,17.00
2019-05-09T15:35:08.919Z,17.10
2019-05-09T15:37:38.512Z,16.80
2019-05-09T15:40:08.658Z,16.70
2019-05-09T15:42:38.924Z,16.80
2019-05-09T15:45:08.540Z,16.70
2019-05-09T15:47:37.917Z,16.70
2019-05-09T15:50:18.436Z,16.60
2019-05-09T15:52:38.275Z,16.50
2019-05-09T15:55:09.479Z,16.40
2019-05-09T15:57:37.901Z,16.40
2019-05-09T16:00:08.909Z,16.50
2019-05-09T16:02:39.035Z,16.50
2019-05-09T16:05:10.537Z,16.40
2019-05-09T16:07:37.808Z,16.30
2019-05-09T16:10:08.632Z,16.10
2019-05-09T16:12:38.449Z,16.00
2019-05-09T16:15:08.029Z,15.90
2019-05-09T16:17:38.995Z,15.80
2019-05-09T16:20:08.481Z,15.80
2019-05-09T16:22:39.182Z,15.70
2019-05-09T16:25:08.938Z,15.60
2019-05-09T16:27:38.081Z,15.40
2019-05-09T16:30:09.497Z,15.40
2019-05-09T16:32:37.973Z,15.50
2019-05-09T16:35:07.962Z,15.50
2019-05-09T16:37:56.918Z,15.60
2019-05-09T16:40:08.398Z,15.60
2019-05-09T16:42:38.192Z,15.60
2019-05-09T16:45:08.289Z,15.50
2019-05-09T16:47:36.740Z,15.60
2019-05-09T16:50:12.162Z,15.60
2019-05-09T16:52:43.534Z,15.60
2019-05-09T16:55:12.403Z,15.40
2019-05-09T16:57:40.830Z,15.50
2019-05-09T17:00:12.896Z,15.50
2019-05-09T17:02:41.439Z,15.40
2019-05-09T17:05:09.950Z,15.30
2019-05-09T17:07:38.983Z,15.20
2019-05-09T17:10:08.407Z,14.90
2019-05-09T17:12:37.020Z,14.40
2019-05-09T17:15:08.516Z,13.60
2019-05-09T17:17:38.483Z,13.10
2019-05-09T17:20:08.968Z,13.10
2019-05-09T17:23:08.310Z,13.20
2019-05-09T17:25:28.020Z,13.10
2019-05-09T17:27:56.920Z,12.90
2019-05-09T17:30:28.475Z,12.90
2019-05-09T17:32:58.321Z,13.10
2019-05-09T17:35:27.921Z,12.90
2019-05-09T17:37:56.493Z,13.10
2019-05-09T17:40:24.917Z,13.30
2019-05-09T17:42:53.362Z,13.20
2019-05-09T17:45:22.137Z,13.10
2019-05-09T17:47:50.547Z,13.00
2019-05-09T17:50:19.041Z,13.20
2019-05-09T17:52:48.087Z,13.20
2019-05-09T17:55:18.242Z,13.30
2019-05-09T17:57:47.953Z,13.30
2019-05-09T18:00:21.698Z,13.40
2019-05-09T18:02:48.665Z,13.10
2019-05-09T18:05:18.368Z,13.10
2019-05-09T18:07:48.476Z,13.20
2019-05-09T18:10:18.646Z,13.00
2019-05-09T18:12:48.063Z,13.10
2019-05-09T18:15:18.668Z,12.80
2019-05-09T18:17:47.980Z,12.90
2019-05-09T18:20:17.640Z,12.80
2019-05-09T18:22:47.951Z,12.80
2019-05-09T18:25:18.787Z,12.60
2019-05-09T18:27:48.786Z,12.40
2019-05-09T18:30:19.034Z,12.50
2019-05-09T18:33:04.038Z,12.30
2019-05-09T18:35:33.502Z,12.50
2019-05-09T18:38:02.417Z,12.40
2019-05-09T18:40:30.837Z,12.60
2019-05-09T18:42:59.414Z,12.60
2019-05-09T18:45:28.458Z,12.70
2019-05-09T18:47:58.001Z,12.70
2019-05-09T18:50:27.007Z,12.50
2019-05-09T18:52:55.525Z,12.60
2019-05-09T18:55:24.083Z,12.40
2019-05-09T18:57:52.578Z,12.40
2019-05-09T19:00:21.662Z,12.30
2019-05-09T19:02:50.779Z,12.30
2019-05-09T19:05:19.373Z,12.20
2019-05-09T19:07:47.955Z,12.20
2019-05-09T19:10:16.631Z,12.30
2019-05-09T19:12:45.113Z,12.30
2019-05-09T19:17:48.446Z,12.40
2019-05-09T19:20:34.837Z,12.40
2019-05-09T19:23:06.590Z,12.50
2019-05-09T19:25:35.498Z,12.40
2019-05-09T19:28:06.878Z,12.40
2019-05-09T19:30:35.582Z,12.30
2019-05-09T19:33:04.195Z,12.30
2019-05-09T19:35:32.627Z,12.40
2019-05-09T19:38:01.403Z,12.40
2019-05-09T19:40:29.950Z,12.40
2019-05-09T19:42:58.405Z,12.40
2019-05-09T19:45:26.993Z,12.40
2019-05-09T19:47:55.562Z,12.40
2019-05-09T19:50:24.079Z,12.40
2019-05-09T19:52:52.547Z,12.40
2019-05-09T19:55:21.105Z,12.40
2019-05-09T19:57:49.525Z,12.40
2019-05-09T20:00:18.259Z,12.40
2019-05-09T20:02:46.733Z,12.50
2019-05-09T20:05:15.510Z,12.40
2019-05-09T20:07:43.974Z,12.40
2019-05-09T20:10:17.269Z,12.50
2019-05-09T20:13:03.542Z,12.50
2019-05-09T20:15:32.084Z,12.50
2019-05-09T20:18:00.578Z,12.50
2019-05-09T20:20:30.709Z,12.50
2019-05-09T20:22:59.122Z,12.50
2019-05-09T20:25:27.641Z,12.40
2019-05-09T20:27:56.555Z,12.50
2019-05-09T20:30:25.268Z,12.40
2019-05-09T20:32:53.722Z,12.50
2019-05-09T20:35:23.816Z,12.60
2019-05-09T20:37:53.203Z,12.60
2019-05-09T20:40:21.871Z,12.60
2019-05-09T20:42:50.654Z,12.70
2019-05-09T20:45:19.346Z,12.70
2019-05-09T20:47:48.045Z,12.60
2019-05-09T20:50:16.699Z,12.60
2019-05-09T20:52:45.327Z,12.50
2019-05-09T20:55:14.294Z,12.40
2019-05-09T20:57:43.050Z,12.40
2019-05-09T21:00:12.334Z,12.40
2019-05-09T21:02:40.960Z,12.40
2019-05-09T21:05:09.822Z,12.40
2019-05-09T21:07:38.450Z,12.40
2019-05-09T21:10:07.762Z,12.40
2019-05-09T21:12:36.496Z,12.50
2019-05-09T21:15:08.340Z,12.50
2019-05-09T21:17:36.968Z,12.50
2019-05-09T21:20:07.074Z,12.50
2019-05-09T21:22:35.694Z,12.40
2019-05-09T21:25:08.409Z,12.40
2019-05-09T21:27:37.069Z,12.40
2019-05-09T21:30:10.214Z,12.40
2019-05-09T21:32:40.370Z,12.40
2019-05-09T21:35:09.316Z,12.50
2019-05-09T21:37:37.774Z,12.50
2019-05-09T21:40:07.630Z,12.50
2019-05-09T21:42:36.253Z,12.40
2019-05-09T21:45:06.222Z,12.40
2019-05-09T21:47:34.716Z,12.50
2019-05-09T21:50:04.386Z,12.50
2019-05-09T21:52:32.857Z,12.50
2019-05-09T21:55:01.324Z,12.40
2019-05-09T21:57:29.881Z,12.50
2019-05-09T21:59:58.339Z,12.50
2019-05-09T22:02:26.805Z,12.50
2019-05-09T22:04:55.377Z,12.50
2019-05-09T22:07:23.907Z,12.50
2019-05-09T22:09:52.456Z,12.50
2019-05-09T22:12:21.129Z,12.50
2019-05-09T22:14:49.575Z,12.40
2019-05-09T22:17:19.686Z,12.30
2019-05-09T22:19:48.255Z,12.40
2019-05-09T22:22:16.737Z,12.40
2019-05-09T22:24:45.194Z,12.30
2019-05-09T22:27:13.732Z,12.40
2019-05-09T22:29:42.203Z,12.30
2019-05-09T22:32:10.667Z,12.20
2019-05-09T22:34:39.566Z,12.30
2019-05-09T22:37:08.318Z,12.30
2019-05-09T22:39:39.246Z,12.30
2019-05-09T22:42:07.534Z,12.30
2019-05-09T22:44:36.113Z,12.30
2019-05-09T22:47:04.786Z,12.30
2019-05-09T22:49:33.240Z,12.30
2019-05-09T22:52:01.685Z,12.30
2019-05-09T22:54:30.130Z,12.30
2019-05-09T22:56:58.957Z,12.20
2019-05-09T22:59:27.480Z,12.30
2019-05-09T23:01:55.940Z,12.30
2019-05-09T23:04:24.607Z,12.10
2019-05-09T23:06:53.054Z,12.20
2019-05-09T23:09:21.599Z,12.10
2019-05-09T23:11:50.178Z,12.00
2019-05-09T23:14:18.675Z,11.90
2019-05-09T23:16:50.295Z,12.00
2019-05-09T23:19:17.354Z,11.90
2019-05-09T23:21:45.833Z,11.90
2019-05-09T23:24:28.147Z,11.80
2019-05-09T23:26:46.501Z,11.80
2019-05-09T23:29:14.962Z,11.80
2019-05-09T23:31:45.111Z,11.90
2019-05-09T23:34:13.608Z,11.90
2019-05-09T23:36:42.119Z,11.90
2019-05-09T23:39:12.202Z,11.90
2019-05-09T23:41:40.851Z,11.90
2019-05-09T23:44:09.311Z,11.90
2019-05-09T23:46:37.855Z,11.90
2019-05-09T23:49:06.395Z,11.70
2019-05-09T23:51:45.257Z,11.70
2019-05-09T23:54:45.436Z,11.70
2019-05-09T23:57:21.177Z,11.70
